Latest Weather Observations for Camooweal

IDQ60801

Issued at 8:05 pm EST Wednesday 23 April 2014 (issued every 30 minutes, with the page automatically refreshed every 10 minutes)

About weather observations | Map of weather stations | Latest weather observations for QLD | Other Formats
Station Details ID: 037010 Name: CAMOOWEAL TOWNSHIP Lat: -19.92 Lon: 138.12 Height: 231.2 m
Data from the previous 72 hours. | See also: Recent months at Camooweal
Date/Time
EST
Temp
°C
App
Temp
°C
Dew
Point
Rel
Hum
%
Delta-T
°C
Wind Press
QNH
hPa
Press
MSL
hPa
Rain
since 9 am
mm
Dir
 
Spd
km/h
Gust
km/h
Spd
kts
Gust
kts
23/08:00pm 27.8 26.8 18.8 58 5.8 NNE 22 30 12 16 1012.3 - 0.0
23/07:30pm 28.7 27.4 18.2 53 6.8 NNE 22 30 12 16 1011.8 - 0.0
23/07:00pm 29.7 29.2 16.8 45 8.2 NNE 15 26 8 14 1011.4 - 0.0
23/06:30pm 30.3 29.8 17.0 44 8.5 NNE 15 20 8 11 1011.1 - 0.0
23/06:00pm 31.3 30.5 16.1 40 9.6 NNE 15 20 8 11 1010.7 1009.5 0.0
23/05:30pm 31.8 31.4 16.1 38 9.9 NE 13 20 7 11 1010.7 - 0.0
23/05:00pm 31.6 31.1 16.0 39 9.8 NNE 13 20 7 11 1010.4 - 0.0
23/04:30pm 32.2 31.2 15.7 37 10.4 NE 15 24 8 13 1010.5 - 0.0
23/04:00pm 33.1 32.5 14.7 33 11.4 E 11 15 6 8 1010.7 - 0.0
23/03:30pm 31.9 30.9 14.5 34 10.7 E 13 20 7 11 1011.0 - 0.0
23/03:00pm 32.5 32.2 15.5 36 10.7 ENE 11 20 6 11 1011.2 1009.9 0.0
23/02:30pm 32.4 32.1 15.4 36 10.6 ENE 11 17 6 9 1011.5 - 0.0
23/02:00pm 33.2 33.1 17.0 38 10.4 NE 13 19 7 10 1012.1 - 0.0
23/01:30pm 31.7 31.5 16.8 40 9.5 NE 13 20 7 11 1012.5 - 0.0
23/01:00pm 32.9 33.4 17.5 39 10.0 NE 11 24 6 13 1013.0 - 0.0
23/12:30pm 31.6 32.6 18.6 46 8.5 ENE 11 17 6 9 1013.5 - 0.0
23/12:00pm 30.2 31.2 18.6 49 7.5 ENE 11 15 6 8 1014.1 1012.8 0.0
23/11:30am 30.4 31.6 19.1 50 7.4 NE 11 20 6 11 1014.7 - 0.0
23/11:00am 29.7 31.9 20.3 57 6.3 NE 9 15 5 8 1014.9 - 0.0
23/10:30am 28.7 30.0 20.2 60 5.6 NE 13 19 7 10 1015.2 - 0.0
23/10:00am 28.4 29.3 20.1 60 5.5 NE 15 20 8 11 1015.5 - 0.0
23/09:30am 27.1 28.3 19.9 64 4.7 ENE 13 19 7 10 1015.3 - 0.0
23/09:00am 26.7 28.5 20.3 68 4.2 ENE 11 19 6 10 1015.2 1014.0 0.0
23/08:30am 25.1 27.3 19.7 72 3.5 ENE 7 13 4 7 1014.9 - 0.0
23/08:00am 23.0 25.4 19.6 81 2.2 ESE 6 7 3 4 1014.4 - 0.0
23/07:30am 21.7 23.7 18.7 83 1.9 ENE 6 7 3 4 1014.0 - 0.0
23/07:00am 21.3 22.4 18.1 82 2.0 E 9 11 5 6 1013.4 - 0.0
23/06:30am 21.2 23.6 18.0 82 2.0 NE 2 6 1 3 1012.9 - 0.0
23/06:00am 21.2 23.8 17.4 79 2.4 NE 0 0 0 0 1012.6 1011.3 0.0
23/05:30am 21.7 24.4 17.7 78 2.5 CALM 0 0 0 0 1012.5 - 0.0
23/05:00am 22.3 24.1 18.3 78 2.5 ENE 6 7 3 4 1012.7 - 0.0
23/04:30am 21.6 22.3 15.7 69 3.6 E 6 7 3 4 1012.6 - 0.0
23/04:00am 22.8 24.0 17.3 71 3.4 NNE 7 9 4 5 1012.6 - 0.0
23/03:30am 23.2 24.6 17.9 72 3.3 N 7 9 4 5 1012.7 - 0.0
23/03:00am 21.7 22.0 13.3 59 4.9 NNE 4 7 2 4 1012.7 1011.4 0.0
23/02:30am 23.6 24.7 16.6 65 4.3 NNE 6 9 3 5 1012.9 - 0.0
23/02:00am 23.8 24.4 15.3 59 5.1 ENE 6 6 3 3 1013.1 - 0.0
23/01:30am 24.1 25.5 15.3 58 5.3 NE 2 7 1 4 1013.3 - 0.0
23/01:00am 23.2 24.4 13.7 55 5.6 NE 0 6 0 3 1013.5 - 0.0
23/12:30am 24.7 24.5 14.8 54 6.0 N 9 11 5 6 1013.6 - 0.0
23/12:00am 24.7 24.1 11.6 44 7.5 N 6 7 3 4 1013.8 1012.5 0.0
 
Date/Time
EST
Temp
°C
App
Temp
°C
Dew
Point
Rel
Hum
%
Delta-T
°C
Wind Press
QNH
hPa
Press
MSL
hPa
Rain
since 9 am
mm
Dir
 
Spd
km/h
Gust
km/h
Spd
kts
Gust
kts
22/11:30pm 26.3 23.3 9.2 34 9.5 N 15 20 8 11 1013.7 - 0.0
22/11:00pm 24.1 22.6 6.8 33 9.1 SE 4 6 2 3 1013.5 - 0.0
22/10:30pm 24.1 22.1 6.4 32 9.2 ESE 6 9 3 5 1013.4 - 0.0
22/10:00pm 26.9 24.9 6.9 28 10.7 ENE 7 9 4 5 1013.5 - 0.0
22/09:30pm 27.3 24.9 7.2 28 10.8 NE 9 11 5 6 1013.5 - 0.0
22/09:00pm 24.8 22.8 6.1 30 9.7 S 6 13 3 7 1013.3 1012.0 0.0
22/08:30pm 26.7 24.8 6.7 28 10.6 ESE 6 9 3 5 1013.2 - 0.0
22/08:00pm 27.7 27.0 7.0 27 11.1 CALM 0 2 0 1 1012.7 - 0.0
22/07:30pm 27.9 26.1 5.5 24 11.7 NE 4 6 2 3 1012.5 - 0.0
22/07:00pm 29.8 27.7 5.8 22 12.8 ENE 6 7 3 4 1012.2 - 0.0
22/06:30pm 31.1 28.6 4.8 19 13.9 E 7 11 4 6 1011.9 - 0.0
22/06:00pm 32.9 30.4 4.6 17 15.0 ESE 7 15 4 8 1011.7 1010.4 0.0
22/05:30pm 34.2 31.7 4.8 16 15.8 S 7 15 4 8 1011.6 - 0.0
22/05:00pm 34.0 29.9 4.6 16 15.7 SSE 15 22 8 12 1011.7 - 0.0
22/04:30pm 34.3 30.5 4.0 15 16.1 ESE 13 20 7 11 1011.6 - 0.0
22/04:00pm 34.8 31.1 4.4 15 16.3 S 13 20 7 11 1011.6 - 0.0
22/03:30pm 34.6 31.0 5.1 16 15.9 SSW 13 20 7 11 1011.7 - 0.0
22/03:00pm 34.2 29.8 4.8 16 15.8 S 17 24 9 13 1011.8 1010.5 0.0
22/02:30pm 34.1 30.4 4.7 16 15.7 SSW 13 20 7 11 1012.2 - 0.0
22/02:00pm 34.4 31.2 5.0 16 15.8 SSE 11 24 6 13 1012.8 - 0.0
22/01:30pm 33.9 30.0 5.4 17 15.4 SW 15 22 8 12 1013.1 - 0.0
22/01:00pm 33.1 29.8 4.8 17 15.1 SE 11 22 6 12 1013.7 - 0.0
22/12:30pm 34.1 30.4 6.4 18 15.2 SE 15 26 8 14 1014.1 - 0.0
22/12:00pm 33.6 30.6 6.0 18 15.0 ESE 11 20 6 11 1014.8 1013.6 0.0
22/11:30am 32.7 29.0 6.1 19 14.5 SE 15 28 8 15 1015.2 - 0.0
22/11:00am 33.1 29.0 6.4 19 14.6 E 17 26 9 14 1015.7 - 0.0
22/10:30am 32.1 28.2 7.0 21 13.8 E 17 26 9 14 1015.9 - 0.0
22/10:00am 31.0 27.9 8.7 25 12.5 ESE 15 20 8 11 1016.1 - 0.0
22/09:30am 29.1 26.0 8.7 28 11.4 E 15 20 8 11 1016.0 - 0.0
22/09:00am 27.2 24.4 8.6 31 10.2 ESE 13 19 7 10 1015.9 1014.6 0.0
22/08:30am 24.4 23.2 10.3 41 7.9 S 7 9 4 5 1015.6 - 0.0
22/08:00am 21.2 20.4 11.0 52 5.7 SE 6 7 3 4 1015.3 - 0.0
22/07:30am 19.1 17.8 10.1 56 4.9 SE 7 9 4 5 1015.1 - 0.0
22/07:00am 18.0 16.2 9.4 57 4.6 ESE 9 9 5 5 1014.9 - 0.0
22/06:30am 18.6 17.2 9.7 56 4.8 SW 7 9 4 5 1014.4 - 0.0
22/06:00am 18.4 16.5 9.2 55 4.9 S 9 11 5 6 1014.0 1012.7 0.0
22/05:30am 18.8 16.9 9.0 53 5.2 SSW 9 9 5 5 1013.8 - 0.0
22/05:00am 19.8 17.8 10.2 54 5.2 SSW 11 15 6 8 1013.6 - 0.0
22/04:30am 19.7 19.9 10.7 56 4.9 CALM 0 0 0 0 1013.3 - 0.0
22/04:00am 21.0 21.4 11.1 53 5.5 CALM 0 0 0 0 1013.3 - 0.0
22/03:30am 21.4 20.4 10.3 49 6.1 NNE 6 7 3 4 1013.2 - 0.0
22/03:00am 21.6 21.0 10.4 49 6.2 NNE 4 7 2 4 1013.4 1012.1 0.0
22/02:30am 23.2 21.5 9.9 43 7.3 NNE 9 11 5 6 1013.7 - 0.0
22/02:00am 22.6 22.8 10.7 47 6.6 CALM 0 0 0 0 1014.0 - 0.0
22/01:30am 23.2 23.4 10.6 45 7.0 CALM 0 6 0 3 1014.2 - 0.0
22/01:00am 24.7 23.8 10.6 41 7.9 NNE 6 7 3 4 1014.4 - 0.0
22/12:30am 25.0 25.1 11.6 43 7.7 NNW 2 7 1 4 1014.8 - 0.0
22/12:00am 24.8 25.0 11.7 44 7.5 NW 2 7 1 4 1014.9 1013.7 0.0
 
Date/Time
EST
Temp
°C
App
Temp
°C
Dew
Point
Rel
Hum
%
Delta-T
°C
Wind Press
QNH
hPa
Press
MSL
hPa
Rain
since 9 am
mm
Dir
 
Spd
km/h
Gust
km/h
Spd
kts
Gust
kts
21/11:30pm 24.2 24.7 11.5 45 7.2 CALM 0 6 0 3 1014.8 - 0.0
21/11:00pm 25.1 25.6 11.6 42 7.7 CALM 0 0 0 0 1014.8 - 0.0
21/10:30pm 26.7 25.9 11.2 38 8.9 NE 6 7 3 4 1014.8 - 0.0
21/10:00pm 27.5 26.2 11.1 36 9.4 NNE 9 11 5 6 1014.8 - 0.0
21/09:30pm 27.8 26.5 11.4 36 9.5 NE 9 11 5 6 1014.8 - 0.0
21/09:00pm 28.1 26.7 10.8 34 9.9 NE 9 11 5 6 1014.4 1013.2 0.0
21/08:30pm 28.5 27.2 11.1 34 10.0 NE 9 13 5 7 1014.3 - 0.0
21/08:00pm 28.7 27.3 10.8 33 10.3 NE 9 13 5 7 1013.8 - 0.0
21/07:30pm 29.0 27.5 10.6 32 10.6 NNE 9 11 5 6 1013.7 - 0.0
21/07:00pm 29.5 28.4 10.6 31 10.9 N 7 9 4 5 1013.4 - 0.0
21/06:30pm 30.8 29.2 10.2 28 11.8 NNE 9 13 5 7 1013.2 - 0.0
21/06:00pm 31.7 29.2 9.8 26 12.6 NNE 13 17 7 9 1012.9 1011.6 0.0
21/05:30pm 32.5 30.2 10.5 26 12.8 NE 13 17 7 9 1012.5 - 0.0
21/05:00pm 32.3 30.9 10.9 27 12.5 ENE 9 15 5 8 1012.4 - 0.0
21/04:30pm 32.3 31.3 10.9 27 12.5 NNE 7 13 4 7 1012.3 - 0.0
21/04:00pm 33.3 32.5 11.2 26 13.0 NE 6 13 3 7 1012.4 - 0.0
21/03:30pm 32.7 32.4 11.3 27 12.6 ENE 4 9 2 5 1012.5 - 0.0
21/03:00pm 33.4 31.0 11.3 26 13.1 ENE 15 22 8 12 1012.7 1011.4 0.0
21/02:30pm 34.2 33.5 11.4 25 13.5 NE 6 13 3 7 1012.8 - 0.0
21/02:00pm 33.5 31.5 11.4 26 13.1 ENE 13 22 7 12 1013.1 - 0.0
21/01:30pm 31.8 29.2 12.1 30 11.7 NE 17 24 9 13 1013.5 - 0.0
21/01:00pm 32.0 30.7 13.7 33 11.2 ENE 13 20 7 11 1013.9 - 0.0
21/12:30pm 31.9 30.2 13.6 32 11.1 NNE 15 22 8 12 1014.5 - 0.0
21/12:00pm 30.9 28.8 13.7 35 10.4 NNE 17 26 9 14 1015.0 1013.8 0.0
21/11:30am 30.9 28.5 13.7 35 10.4 NNE 19 26 10 14 1015.5 - 0.0
21/11:00am 29.4 26.6 13.2 37 9.7 NNE 20 32 11 17 1015.8 - 0.0
21/10:30am 29.5 25.9 12.0 34 10.3 NE 22 32 12 17 1015.9 - 0.0
21/10:00am 28.6 25.1 8.8 29 11.0 ENE 17 28 9 15 1015.8 - 0.0
21/09:30am 27.0 22.6 4.7 24 11.5 E 17 24 9 13 1015.7 - 0.0
21/09:00am 25.1 20.8 3.1 24 10.8 ESE 15 20 8 11 1015.5 1014.2 0.0
21/08:30am 22.2 18.7 3.3 29 9.2 SE 11 15 6 8 1015.5 - 0.0
21/08:00am 17.7 15.2 3.6 39 6.7 S 6 7 3 4 1015.1 - 0.0
21/07:30am 15.8 13.3 3.6 44 5.7 SSW 6 7 3 4 1015.0 - 0.0
21/07:00am 14.9 11.8 3.7 47 5.2 SSW 9 11 5 6 1014.5 - 0.0
21/06:30am 15.5 12.7 3.3 44 5.6 SSW 7 9 4 5 1014.2 - 0.0
21/06:00am 15.7 13.0 3.5 44 5.7 SSW 7 9 4 5 1014.0 1012.7 0.0
21/05:30am 16.7 13.6 3.4 41 6.2 SW 9 11 5 6 1013.6 - 0.0
21/05:00am 17.9 15.1 3.0 37 7.0 S 7 9 4 5 1013.3 - 0.0
21/04:30am 18.2 15.0 2.9 36 7.1 S 9 11 5 6 1013.5 - 0.0
21/04:00am 18.7 15.5 3.3 36 7.3 S 9 13 5 7 1013.5 - 0.0
21/03:30am 18.7 15.5 2.9 35 7.4 S 9 13 5 7 1013.5 - 0.0
21/03:00am 19.1 15.9 2.9 34 7.6 S 9 13 5 7 1013.6 1012.3 0.0
21/02:30am 19.7 16.0 2.6 32 8.0 S 11 13 6 7 1013.8 - 0.0
21/02:00am 20.6 16.9 2.4 30 8.6 S 11 13 6 7 1014.1 - 0.0
21/01:30am 21.7 17.6 2.4 28 9.2 SSE 13 19 7 10 1014.4 - 0.0
21/01:00am 21.5 17.8 2.2 28 9.1 S 11 15 6 8 1014.6 - 0.0
21/12:30am 21.8 18.0 2.0 27 9.3 SSE 11 15 6 8 1014.9 - 0.0
21/12:00am 23.0 18.4 1.4 24 10.2 SSE 15 24 8 13 1015.0 1013.8 0.0
 
Date/Time
EST
Temp
°C
App
Temp
°C
Dew
Point
Rel
Hum
%
Delta-T
°C
Wind Press
QNH
hPa
Press
MSL
hPa
Rain
since 9 am
mm
Dir
 
Spd
km/h
Gust
km/h
Spd
kts
Gust
kts
20/11:30pm 24.3 19.4 1.9 23 10.7 SSE 17 24 9 13 1015.1 - 0.0
20/11:00pm 24.7 19.4 1.6 22 11.0 SSE 19 26 10 14 1015.1 - 0.0
20/10:30pm 25.8 20.5 1.8 21 11.6 SSE 19 26 10 14 1014.9 - 0.0
20/10:00pm 25.7 21.1 1.8 21 11.6 SSE 15 24 8 13 1014.9 - 0.0
20/09:30pm 25.6 21.0 1.7 21 11.5 SSE 15 19 8 10 1014.8 - 0.0
20/09:00pm 24.9 20.6 1.1 21 11.3 SSE 13 15 7 8 1014.6 1013.4 0.0
20/08:30pm 26.2 22.0 1.5 20 11.9 SSE 13 17 7 9 1014.4 - 0.0

Other Formats:

Comma delimited format used in spreadsheet applications
http://www.bom.gov.au/fwo/IDQ60801/IDQ60801.94255.axf

JavaScript Object Notation format (JSON) in row-major order
http://www.bom.gov.au/fwo/IDQ60801/IDQ60801.94255.json